Time;durP1;ratioP1;P1;durP2;ratioP2;P2;SDS_P1;SDS_P2;PMS_P1;PMS_P2;Temp;Humidity;BMP_temperature;BMP_pressure;BME280_temperature;BME280_humidity;BME280_pressure;Samples;Min_cycle;Max_cycle;Signal;HPM_P1;HPM_P2
2023/11/05 00:00:36;;;;;;;;;;;22.40;46.70;;;;;;5114691;28;19924;-58
2023/11/05 00:03:03;;;;;;;;;;;22.50;46.70;;;;;;5114888;28;20364;-58
2023/11/05 00:05:30;;;;;;;;;;;22.50;46.70;;;;;;5114236;28;19928;-58
2023/11/05 00:07:57;;;;;;;;;;;22.40;46.70;;;;;;5114424;28;20076;-59
2023/11/05 00:10:25;;;;;;;;;;;22.40;46.70;;;;;;5095913;28;19988;-58
2023/11/05 00:12:52;;;;;;;;;;;22.40;46.70;;;;;;5114563;28;20022;-59
2023/11/05 00:15:19;;;;;;;;;;;22.50;46.80;;;;;;5114609;28;20047;-59
2023/11/05 00:17:46;;;;;;;;;;;22.40;46.70;;;;;;5114380;28;19927;-59
2023/11/05 00:20:14;;;;;;;;;;;22.40;46.70;;;;;;5114588;28;19928;-59
2023/11/05 00:22:41;;;;;;;;;;;22.50;46.70;;;;;;5114195;28;20260;-57
2023/11/05 00:25:09;;;;;;;;;;;22.50;46.70;;;;;;5114449;28;20011;-58
2023/11/05 00:27:36;;;;;;;;;;;22.40;46.70;;;;;;5114147;28;19924;-58
2023/11/05 00:30:04;;;;;;;;;;;22.50;46.70;;;;;;5096311;28;19935;-60
2023/11/05 00:32:31;;;;;;;;;;;22.50;46.80;;;;;;5114074;28;19928;-58
2023/11/05 00:34:58;;;;;;;;;;;22.40;46.70;;;;;;5114125;28;20262;-58
2023/11/05 00:37:25;;;;;;;;;;;22.50;46.80;;;;;;5114213;28;19928;-58
2023/11/05 00:39:52;;;;;;;;;;;22.50;46.80;;;;;;5113393;28;19923;-59
2023/11/05 00:42:19;;;;;;;;;;;22.50;46.80;;;;;;5113994;28;19924;-56
2023/11/05 00:44:46;;;;;;;;;;;22.50;46.80;;;;;;5114017;28;20440;-58
2023/11/05 00:47:13;;;;;;;;;;;22.50;46.80;;;;;;5113599;28;20424;-58
2023/11/05 00:49:40;;;;;;;;;;;22.50;46.80;;;;;;5113994;28;19970;-58
2023/11/05 00:52:08;;;;;;;;;;;22.50;46.80;;;;;;5113835;28;20368;-59
2023/11/05 00:54:35;;;;;;;;;;;22.50;46.80;;;;;;5114124;28;19923;-58
2023/11/05 00:57:05;;;;;;;;;;;22.50;46.70;;;;;;5079797;28;19931;-57
2023/11/05 00:59:32;;;;;;;;;;;22.50;46.60;;;;;;5114091;28;20363;-58
2023/11/05 01:01:59;;;;;;;;;;;22.50;46.60;;;;;;5113608;28;19923;-58
2023/11/05 01:04:26;;;;;;;;;;;22.50;46.60;;;;;;5113588;28;19928;-58
2023/11/05 01:06:54;;;;;;;;;;;22.50;46.60;;;;;;5113819;28;19923;-57
2023/11/05 01:09:20;;;;;;;;;;;22.50;46.60;;;;;;5113477;28;19974;-58
2023/11/05 01:11:47;;;;;;;;;;;22.50;46.60;;;;;;5113490;28;19997;-58
2023/11/05 01:14:14;;;;;;;;;;;22.50;46.60;;;;;;5113389;28;19924;-58
2023/11/05 01:16:41;;;;;;;;;;;22.50;46.60;;;;;;5113814;28;19928;-58
2023/11/05 01:19:09;;;;;;;;;;;22.50;46.60;;;;;;5113776;28;19931;-57
2023/11/05 01:21:35;;;;;;;;;;;22.50;46.60;;;;;;5114763;28;19928;-58
2023/11/05 01:24:03;;;;;;;;;;;22.50;46.60;;;;;;5099754;28;20034;-58
2023/11/05 01:26:30;;;;;;;;;;;22.50;46.60;;;;;;5117749;28;19931;-58
2023/11/05 01:28:57;;;;;;;;;;;22.50;46.60;;;;;;5117612;28;19924;-58
2023/11/05 01:31:24;;;;;;;;;;;22.50;46.60;;;;;;5117736;28;19986;-58
2023/11/05 01:33:51;;;;;;;;;;;22.50;46.60;;;;;;5117703;28;19924;-58
2023/11/05 01:36:18;;;;;;;;;;;22.50;46.70;;;;;;5117936;28;20277;-59
2023/11/05 01:38:45;;;;;;;;;;;22.50;46.60;;;;;;5117978;28;19974;-59
2023/11/05 01:41:12;;;;;;;;;;;22.50;46.70;;;;;;5117721;28;19989;-59
2023/11/05 01:43:39;;;;;;;;;;;22.50;46.70;;;;;;5117679;28;19967;-59
2023/11/05 01:46:06;;;;;;;;;;;22.50;46.70;;;;;;5117357;28;20287;-58
2023/11/05 01:48:33;;;;;;;;;;;22.50;46.70;;;;;;5082589;28;19970;-57
2023/11/05 01:51:03;;;;;;;;;;;22.50;46.70;;;;;;5117589;28;19923;-57
2023/11/05 01:53:30;;;;;;;;;;;22.50;46.70;;;;;;5116835;28;20371;-57
2023/11/05 01:55:57;;;;;;;;;;;22.50;46.70;;;;;;5117578;28;19967;-57
2023/11/05 01:58:24;;;;;;;;;;;22.50;46.70;;;;;;5117503;28;20291;-57
2023/11/05 02:00:54;;;;;;;;;;;22.40;46.60;;;;;;5116953;28;19946;-57
2023/11/05 02:03:21;;;;;;;;;;;22.50;46.70;;;;;;5117022;28;20023;-58
2023/11/05 02:05:48;;;;;;;;;;;22.50;46.70;;;;;;5116841;28;19928;-58
2023/11/05 02:08:15;;;;;;;;;;;22.50;46.70;;;;;;5099157;28;20271;-57
2023/11/05 02:10:43;;;;;;;;;;;22.40;46.70;;;;;;5116918;28;19950;-57
2023/11/05 02:13:10;;;;;;;;;;;22.50;47.30;;;;;;5116611;28;19971;-58
2023/11/05 02:15:37;;;;;;;;;;;22.50;46.80;;;;;;5115664;28;20372;-57
2023/11/05 02:18:04;;;;;;;;;;;22.50;46.80;;;;;;5115416;28;19971;-57
2023/11/05 02:20:31;;;;;;;;;;;22.50;46.80;;;;;;5115696;28;20364;-57
2023/11/05 02:23:00;;;;;;;;;;;22.50;46.80;;;;;;5115691;28;19923;-57
2023/11/05 02:25:27;;;;;;;;;;;22.50;46.80;;;;;;5115295;28;19993;-58
2023/11/05 02:27:54;;;;;;;;;;;22.50;46.80;;;;;;5115406;28;20018;-57
2023/11/05 02:30:24;;;;;;;;;;;22.50;46.80;;;;;;5115509;28;19978;-57
2023/11/05 02:32:52;;;;;;;;;;;22.50;46.80;;;;;;5115127;28;19931;-57
2023/11/05 02:35:20;;;;;;;;;;;22.50;47.30;;;;;;5115000;28;19931;-57
2023/11/05 02:37:47;;;;;;;;;;;22.50;47.20;;;;;;5115369;28;19924;-57
2023/11/05 02:40:14;;;;;;;;;;;22.50;46.60;;;;;;5115243;28;19976;-58
2023/11/05 02:42:41;;;;;;;;;;;22.50;46.70;;;;;;5115117;28;19923;-58
2023/11/05 02:45:08;;;;;;;;;;;22.50;46.60;;;;;;5115175;28;20407;-58
2023/11/05 02:47:35;;;;;;;;;;;22.50;46.70;;;;;;5115085;28;20375;-59
2023/11/05 02:50:03;;;;;;;;;;;22.50;46.60;;;;;;5113421;28;19934;-61
2023/11/05 02:52:30;;;;;;;;;;;22.50;46.70;;;;;;5096393;28;19928;-58
2023/11/05 02:54:57;;;;;;;;;;;22.50;46.70;;;;;;5094581;28;19925;-58
2023/11/05 02:57:24;;;;;;;;;;;22.50;46.70;;;;;;5094690;28;20026;-57
2023/11/05 02:59:51;;;;;;;;;;;22.50;46.70;;;;;;5094489;28;19970;-58
2023/11/05 03:02:18;;;;;;;;;;;22.50;46.70;;;;;;5094791;28;19924;-57
2023/11/05 03:04:45;;;;;;;;;;;22.50;46.70;;;;;;5110114;28;20434;-57
2023/11/05 03:07:12;;;;;;;;;;;22.50;46.70;;;;;;5094402;28;19924;-58
2023/11/05 03:09:40;;;;;;;;;;;22.50;46.70;;;;;;5093979;28;19924;-58
2023/11/05 03:12:07;;;;;;;;;;;22.50;46.70;;;;;;5094345;28;19960;-58
2023/11/05 03:14:36;;;;;;;;;;;22.50;46.80;;;;;;5040382;28;1974106;-58
2023/11/05 03:17:03;;;;;;;;;;;22.50;46.70;;;;;;5113806;28;20353;-58
2023/11/05 03:19:30;;;;;;;;;;;22.50;46.80;;;;;;5115570;28;19938;-58
2023/11/05 03:21:57;;;;;;;;;;;22.50;46.80;;;;;;5115638;28;20314;-59
2023/11/05 03:24:24;;;;;;;;;;;22.50;46.70;;;;;;5114028;28;19970;-58
2023/11/05 03:26:51;;;;;;;;;;;22.50;46.80;;;;;;5115089;28;19923;-58
2023/11/05 03:29:18;;;;;;;;;;;22.50;46.80;;;;;;5115681;28;20379;-58
2023/11/05 03:31:49;;;;;;;;;;;22.50;46.80;;;;;;5115305;28;19927;-58
2023/11/05 03:34:18;;;;;;;;;;;22.50;46.80;;;;;;5115645;28;19985;-58
2023/11/05 03:36:45;;;;;;;;;;;22.50;46.80;;;;;;5108522;28;19936;-59
2023/11/05 03:39:12;;;;;;;;;;;22.50;46.80;;;;;;5095071;28;19970;-58
2023/11/05 03:41:40;;;;;;;;;;;22.50;46.80;;;;;;5094247;28;20372;-58
2023/11/05 03:44:07;;;;;;;;;;;22.50;46.80;;;;;;5093811;28;19928;-58
2023/11/05 03:46:34;;;;;;;;;;;22.50;46.80;;;;;;5094650;28;20334;-58
2023/11/05 03:49:01;;;;;;;;;;;22.50;46.80;;;;;;5094384;28;19938;-58
2023/11/05 03:51:28;;;;;;;;;;;22.50;46.80;;;;;;5094746;28;19924;-58
2023/11/05 03:53:55;;;;;;;;;;;22.50;46.80;;;;;;5094570;28;19928;-58
2023/11/05 03:56:22;;;;;;;;;;;22.50;46.80;;;;;;5094502;28;19924;-58
2023/11/05 03:58:49;;;;;;;;;;;22.50;46.80;;;;;;5094149;28;19924;-59
2023/11/05 04:01:17;;;;;;;;;;;22.50;46.80;;;;;;5094201;28;19924;-58
2023/11/05 04:03:44;;;;;;;;;;;22.50;46.80;;;;;;5094377;28;19924;-58
2023/11/05 04:06:11;;;;;;;;;;;22.50;46.80;;;;;;5094360;28;20380;-58
2023/11/05 04:08:38;;;;;;;;;;;22.50;46.80;;;;;;5076164;28;20367;-58
2023/11/05 04:11:05;;;;;;;;;;;22.50;46.80;;;;;;5094071;28;20450;-58
2023/11/05 04:13:32;;;;;;;;;;;22.50;46.80;;;;;;5093934;28;20436;-59
2023/11/05 04:15:59;;;;;;;;;;;22.50;46.80;;;;;;5093728;28;19991;-58
2023/11/05 04:18:26;;;;;;;;;;;22.50;46.70;;;;;;5094093;28;19966;-59
2023/11/05 04:20:53;;;;;;;;;;;22.50;46.70;;;;;;5093856;28;20453;-58
2023/11/05 04:23:20;;;;;;;;;;;22.50;46.70;;;;;;5094066;28;19977;-59
2023/11/05 04:25:47;;;;;;;;;;;22.50;46.70;;;;;;5094184;28;19931;-59
2023/11/05 04:28:15;;;;;;;;;;;22.50;46.70;;;;;;5094208;28;19978;-59
2023/11/05 04:30:42;;;;;;;;;;;22.50;46.70;;;;;;5094117;28;19924;-58
2023/11/05 04:33:08;;;;;;;;;;;22.50;46.70;;;;;;5093447;28;19979;-59
2023/11/05 04:35:36;;;;;;;;;;;22.50;46.70;;;;;;5094265;28;20007;-58
2023/11/05 04:38:03;;;;;;;;;;;22.50;46.70;;;;;;5094059;28;19986;-58
2023/11/05 04:40:30;;;;;;;;;;;22.50;46.50;;;;;;5094210;28;19924;-58
2023/11/05 04:42:57;;;;;;;;;;;22.50;46.30;;;;;;5075918;28;19970;-59
2023/11/05 04:45:24;;;;;;;;;;;22.60;46.10;;;;;;5093801;28;19924;-58
2023/11/05 04:47:51;;;;;;;;;;;22.60;45.90;;;;;;5075179;28;19928;-58
2023/11/05 04:50:18;;;;;;;;;;;22.60;45.70;;;;;;5093905;28;19930;-58
2023/11/05 04:52:45;;;;;;;;;;;22.60;45.60;;;;;;5093768;28;19924;-56
2023/11/05 04:55:12;;;;;;;;;;;22.60;45.40;;;;;;5093647;28;19924;-58
2023/11/05 04:57:39;;;;;;;;;;;22.60;45.30;;;;;;5093453;28;19924;-58
2023/11/05 05:00:06;;;;;;;;;;;22.60;45.20;;;;;;5093865;28;19989;-58
2023/11/05 05:02:33;;;;;;;;;;;22.60;45.10;;;;;;5093187;28;19968;-57
2023/11/05 05:05:00;;;;;;;;;;;22.60;45.00;;;;;;5093081;28;19932;-58
2023/11/05 05:07:27;;;;;;;;;;;22.60;45.00;;;;;;5093466;28;19974;-58
2023/11/05 05:09:54;;;;;;;;;;;22.60;45.00;;;;;;5092145;28;20399;-58
2023/11/05 05:12:22;;;;;;;;;;;22.60;45.00;;;;;;5093002;28;19963;-58
2023/11/05 05:14:49;;;;;;;;;;;22.60;45.00;;;;;;5093442;28;20347;-60
2023/11/05 05:17:17;;;;;;;;;;;22.50;45.00;;;;;;5093699;28;20384;-58
2023/11/05 05:19:45;;;;;;;;;;;22.50;44.90;;;;;;5075618;28;19963;-58
2023/11/05 05:22:12;;;;;;;;;;;22.50;44.90;;;;;;5092769;28;19971;-58
2023/11/05 05:24:40;;;;;;;;;;;22.50;44.90;;;;;;5093641;28;20303;-58
2023/11/05 05:27:07;;;;;;;;;;;22.50;44.80;;;;;;5093636;28;19924;-59
2023/11/05 05:29:34;;;;;;;;;;;22.60;44.80;;;;;;5093014;28;20384;-58
2023/11/05 05:32:01;;;;;;;;;;;22.60;44.70;;;;;;5093346;28;19963;-57
2023/11/05 05:34:28;;;;;;;;;;;22.60;44.70;;;;;;5093088;28;20018;-57
2023/11/05 05:36:55;;;;;;;;;;;22.60;44.60;;;;;;5093400;28;19966;-58
2023/11/05 05:39:22;;;;;;;;;;;22.60;44.60;;;;;;5093173;28;19928;-57
2023/11/05 05:41:49;;;;;;;;;;;22.60;44.60;;;;;;5093204;28;20327;-58
2023/11/05 05:44:16;;;;;;;;;;;22.60;44.40;;;;;;5092916;28;19978;-57
2023/11/05 05:46:46;;;;;;;;;;;22.60;44.40;;;;;;5093224;28;19958;-57
2023/11/05 05:49:13;;;;;;;;;;;22.50;44.30;;;;;;5093128;28;20344;-58
2023/11/05 05:51:40;;;;;;;;;;;22.60;44.30;;;;;;5093052;28;19924;-57
2023/11/05 05:54:07;;;;;;;;;;;22.60;44.20;;;;;;5092403;28;19981;-57
2023/11/05 05:56:34;;;;;;;;;;;22.60;44.20;;;;;;5093502;28;20321;-58
2023/11/05 05:59:01;;;;;;;;;;;22.50;44.10;;;;;;5093383;28;19966;-58
2023/11/05 06:01:28;;;;;;;;;;;22.60;44.10;;;;;;5093056;28;19963;-58
2023/11/05 06:03:56;;;;;;;;;;;22.60;44.10;;;;;;5092641;28;19932;-58
2023/11/05 06:06:24;;;;;;;;;;;22.60;44.00;;;;;;5092000;28;19928;-57
2023/11/05 06:08:51;;;;;;;;;;;22.60;44.00;;;;;;5096147;28;19924;-58
2023/11/05 06:11:20;;;;;;;;;;;22.60;44.00;;;;;;5096314;28;19924;-58
2023/11/05 06:13:47;;;;;;;;;;;22.60;43.90;;;;;;5096631;28;19939;-58
2023/11/05 06:16:15;;;;;;;;;;;22.60;43.90;;;;;;5096928;28;20384;-58
2023/11/05 06:18:42;;;;;;;;;;;22.60;43.80;;;;;;5096497;28;19924;-58
2023/11/05 06:21:10;;;;;;;;;;;22.60;43.80;;;;;;5096406;28;19931;-57
2023/11/05 06:23:36;;;;;;;;;;;22.60;43.80;;;;;;5096011;28;20376;-58
2023/11/05 06:26:03;;;;;;;;;;;22.60;43.70;;;;;;5096172;28;20382;-58
2023/11/05 06:28:30;;;;;;;;;;;22.60;43.60;;;;;;5078085;28;20337;-58
2023/11/05 06:30:58;;;;;;;;;;;22.60;43.60;;;;;;5096415;28;20359;-57
2023/11/05 06:33:25;;;;;;;;;;;22.60;43.60;;;;;;5095999;28;19924;-58
2023/11/05 06:35:52;;;;;;;;;;;22.60;43.50;;;;;;5096034;28;19931;-58
2023/11/05 06:38:19;;;;;;;;;;;22.60;43.50;;;;;;5078266;28;19955;-58
2023/11/05 06:40:46;;;;;;;;;;;22.70;43.50;;;;;;5096405;28;19931;-58
2023/11/05 06:43:13;;;;;;;;;;;22.70;43.50;;;;;;5096164;28;19924;-58
2023/11/05 06:45:40;;;;;;;;;;;22.70;43.50;;;;;;5095755;28;19963;-58
2023/11/05 06:48:08;;;;;;;;;;;22.70;43.90;;;;;;5095519;28;19928;-58
2023/11/05 06:50:36;;;;;;;;;;;22.70;43.40;;;;;;5095644;28;19985;-57
2023/11/05 06:53:03;;;;;;;;;;;22.70;43.30;;;;;;5095723;28;19970;-57
2023/11/05 06:55:30;;;;;;;;;;;22.70;43.20;;;;;;5096258;28;19971;-57
2023/11/05 06:57:57;;;;;;;;;;;22.70;43.20;;;;;;5095792;28;19986;-58
2023/11/05 07:00:24;;;;;;;;;;;22.70;43.20;;;;;;5095321;28;19932;-57
2023/11/05 07:02:51;;;;;;;;;;;22.70;43.30;;;;;;5095140;28;19928;-57
2023/11/05 07:05:18;;;;;;;;;;;22.70;43.20;;;;;;5095845;28;20341;-57
2023/11/05 07:07:45;;;;;;;;;;;22.70;43.20;;;;;;5095500;28;20019;-57
2023/11/05 07:10:13;;;;;;;;;;;22.80;43.30;;;;;;5106229;28;19924;-58
2023/11/05 07:12:41;;;;;;;;;;;22.80;43.20;;;;;;5115444;28;20387;-57
2023/11/05 07:15:10;;;;;;;;;;;22.80;43.20;;;;;;5115501;28;19923;-59
2023/11/05 07:17:37;;;;;;;;;;;22.80;43.20;;;;;;5116312;28;19927;-58
2023/11/05 07:20:06;;;;;;;;;;;22.80;43.20;;;;;;5114780;28;20307;-58
2023/11/05 07:22:33;;;;;;;;;;;22.80;43.20;;;;;;5115121;27;19931;-57
2023/11/05 07:25:05;;;;;;;;;;;22.80;43.20;;;;;;5115740;28;20010;-58
2023/11/05 07:27:32;;;;;;;;;;;22.80;43.20;;;;;;5115518;28;19945;-58
2023/11/05 07:29:59;;;;;;;;;;;22.80;43.20;;;;;;5105117;27;20375;-56
2023/11/05 07:32:26;;;;;;;;;;;22.80;43.20;;;;;;5107276;28;19923;-57
2023/11/05 07:34:53;;;;;;;;;;;22.80;43.30;;;;;;5094877;28;19924;-58
2023/11/05 07:37:20;;;;;;;;;;;22.80;43.30;;;;;;5100253;28;19973;-59
2023/11/05 07:39:47;;;;;;;;;;;22.80;43.30;;;;;;5115483;28;19923;-58
2023/11/05 07:42:14;;;;;;;;;;;22.80;43.30;;;;;;5114242;28;20330;-57
2023/11/05 07:44:41;;;;;;;;;;;22.80;43.30;;;;;;5115330;28;20413;-57
2023/11/05 07:47:08;;;;;;;;;;;22.80;43.40;;;;;;5115029;28;20421;-57
2023/11/05 07:49:36;;;;;;;;;;;22.90;43.50;;;;;;5115006;28;20287;-57
2023/11/05 07:52:03;;;;;;;;;;;22.90;43.50;;;;;;5114445;28;19923;-57
2023/11/05 07:54:30;;;;;;;;;;;22.90;43.50;;;;;;5115081;28;20311;-57
2023/11/05 07:56:58;;;;;;;;;;;22.90;43.50;;;;;;5115455;28;19993;-58
2023/11/05 07:59:26;;;;;;;;;;;22.90;43.60;;;;;;5115098;28;19973;-58
2023/11/05 08:01:53;;;;;;;;;;;22.90;43.70;;;;;;5114909;28;19923;-58
2023/11/05 08:04:20;;;;;;;;;;;22.90;43.70;;;;;;5114485;28;19977;-58
2023/11/05 08:06:48;;;;;;;;;;;22.80;43.70;;;;;;5114591;28;19928;-57
2023/11/05 08:09:15;;;;;;;;;;;22.80;43.80;;;;;;5114558;28;20363;-58
2023/11/05 08:11:43;;;;;;;;;;;22.80;43.90;;;;;;5114451;28;19930;-57
2023/11/05 08:14:10;;;;;;;;;;;22.80;43.90;;;;;;5114369;28;19924;-58
2023/11/05 08:16:37;;;;;;;;;;;22.80;44.00;;;;;;5114731;28;19977;-58
2023/11/05 08:19:04;;;;;;;;;;;22.80;44.10;;;;;;5114700;28;20007;-59
2023/11/05 08:21:31;;;;;;;;;;;22.80;44.10;;;;;;5114633;28;19924;-59
2023/11/05 08:23:59;;;;;;;;;;;22.80;44.20;;;;;;5113908;28;19932;-59
2023/11/05 08:26:26;;;;;;;;;;;22.80;44.20;;;;;;5114356;28;19975;-58
2023/11/05 08:28:55;;;;;;;;;;;22.80;44.30;;;;;;5114390;28;19969;-59
2023/11/05 08:31:22;;;;;;;;;;;22.80;44.30;;;;;;5114156;28;20299;-60
2023/11/05 08:33:49;;;;;;;;;;;22.80;44.40;;;;;;5114047;28;19934;-56
2023/11/05 08:36:16;;;;;;;;;;;22.80;44.40;;;;;;5114742;28;19928;-57
2023/11/05 08:38:43;;;;;;;;;;;22.80;44.50;;;;;;5114127;28;19931;-57
2023/11/05 08:41:10;;;;;;;;;;;22.80;44.50;;;;;;5114129;28;19977;-58
2023/11/05 08:43:37;;;;;;;;;;;22.80;44.50;;;;;;5114213;28;20426;-57
2023/11/05 08:46:04;;;;;;;;;;;22.80;44.50;;;;;;5100157;28;19934;-58
2023/11/05 08:48:32;;;;;;;;;;;22.80;44.50;;;;;;5102511;28;19928;-58
2023/11/05 08:50:59;;;;;;;;;;;22.80;44.60;;;;;;5093459;28;20368;-58
2023/11/05 08:53:26;;;;;;;;;;;22.80;44.70;;;;;;5092192;28;19928;-58
2023/11/05 08:55:53;;;;;;;;;;;22.90;44.80;;;;;;5092821;28;19924;-58
2023/11/05 08:58:20;;;;;;;;;;;22.90;44.80;;;;;;5093461;28;19924;-58
2023/11/05 09:00:47;;;;;;;;;;;22.90;44.80;;;;;;5105355;28;19924;-58
2023/11/05 09:03:16;;;;;;;;;;;22.90;44.90;;;;;;5093362;28;19978;-59
2023/11/05 09:05:43;;;;;;;;;;;22.90;45.00;;;;;;5075587;28;19967;-58
2023/11/05 09:08:10;;;;;;;;;;;22.90;45.00;;;;;;5095224;28;20002;-56
2023/11/05 09:10:37;;;;;;;;;;;22.90;45.00;;;;;;5113696;28;19923;-56
2023/11/05 09:13:04;;;;;;;;;;;22.90;45.10;;;;;;5113525;28;19924;-58
2023/11/05 09:15:32;;;;;;;;;;;22.90;45.00;;;;;;5113481;28;19924;-58
2023/11/05 09:17:59;;;;;;;;;;;22.90;45.00;;;;;;5113609;28;19954;-58
2023/11/05 09:20:27;;;;;;;;;;;22.90;45.00;;;;;;5113901;28;20015;-57
2023/11/05 09:22:58;;;;;;;;;;;23.00;45.10;;;;;;5113297;28;19930;-57
2023/11/05 09:25:27;;;;;;;;;;;23.00;45.10;;;;;;5113741;28;19985;-57
2023/11/05 09:27:56;;;;;;;;;;;23.00;45.10;;;;;;5113500;28;20023;-57
2023/11/05 09:30:23;;;;;;;;;;;23.00;45.20;;;;;;5113274;28;20452;-58
2023/11/05 09:32:50;;;;;;;;;;;23.00;45.20;;;;;;5113659;28;20288;-57
2023/11/05 09:35:17;;;;;;;;;;;23.00;45.30;;;;;;5113329;28;20399;-57
2023/11/05 09:37:45;;;;;;;;;;;22.90;45.30;;;;;;5113395;28;20442;-58
2023/11/05 09:40:14;;;;;;;;;;;22.90;45.40;;;;;;5113728;28;19924;-58
2023/11/05 09:42:51;;;;;;;;;;;22.90;45.50;;;;;;5097069;28;19973;-58
2023/11/05 09:45:18;;;;;;;;;;;22.90;45.60;;;;;;5092969;28;19969;-58
2023/11/05 09:47:45;;;;;;;;;;;22.90;45.60;;;;;;5117192;28;19928;-58
2023/11/05 09:50:12;;;;;;;;;;;22.90;45.70;;;;;;5117189;28;20364;-58
2023/11/05 09:52:40;;;;;;;;;;;23.00;45.70;;;;;;5117307;28;19924;-58
2023/11/05 09:55:08;;;;;;;;;;;23.00;45.70;;;;;;5117039;28;19972;-58
2023/11/05 09:57:36;;;;;;;;;;;23.00;45.70;;;;;;5116505;28;19950;-58
2023/11/05 10:00:08;;;;;;;;;;;23.00;45.70;;;;;;5116844;28;19940;-59
2023/11/05 10:02:53;;;;;;;;;;;23.00;45.70;;;;;;5116877;28;19931;-59
2023/11/05 10:05:20;;;;;;;;;;;23.00;45.80;;;;;;5116774;28;19974;-58
2023/11/05 10:07:48;;;;;;;;;;;23.00;45.80;;;;;;5117166;28;19927;-59
2023/11/05 10:10:15;;;;;;;;;;;23.00;45.90;;;;;;5116881;28;20023;-58
2023/11/05 10:12:42;;;;;;;;;;;23.00;45.90;;;;;;5116907;28;19924;-59
2023/11/05 10:15:09;;;;;;;;;;;23.00;45.90;;;;;;5116907;28;20265;-58
2023/11/05 10:17:36;;;;;;;;;;;23.00;46.00;;;;;;5116633;28;19974;-58
2023/11/05 10:20:04;;;;;;;;;;;23.00;46.00;;;;;;5116781;28;19928;-58
2023/11/05 10:22:31;;;;;;;;;;;23.10;46.10;;;;;;5116654;28;19969;-58
2023/11/05 10:24:58;;;;;;;;;;;23.10;46.10;;;;;;5116768;28;19974;-58
2023/11/05 10:27:28;;;;;;;;;;;23.10;46.10;;;;;;5116793;28;20333;-58
2023/11/05 10:29:58;;;;;;;;;;;23.10;46.10;;;;;;5116569;28;19923;-58
2023/11/05 10:32:27;;;;;;;;;;;23.10;46.10;;;;;;5116346;28;20372;-57
2023/11/05 10:34:56;;;;;;;;;;;23.20;46.20;;;;;;5116355;28;19931;-58
2023/11/05 10:37:23;;;;;;;;;;;23.10;46.10;;;;;;5116011;28;19928;-58
2023/11/05 10:39:50;;;;;;;;;;;23.20;46.20;;;;;;5098256;28;19924;-58
2023/11/05 10:42:18;;;;;;;;;;;23.20;46.20;;;;;;5116764;28;19930;-58
2023/11/05 10:44:45;;;;;;;;;;;23.20;46.20;;;;;;5116031;28;20018;-59
2023/11/05 10:47:12;;;;;;;;;;;23.20;46.30;;;;;;5116708;28;20341;-58
2023/11/05 10:49:39;;;;;;;;;;;23.20;46.30;;;;;;5115625;28;19932;-58
2023/11/05 10:52:07;;;;;;;;;;;23.20;46.30;;;;;;5115776;28;20030;-58
2023/11/05 10:54:34;;;;;;;;;;;23.20;46.40;;;;;;5115777;28;20371;-58
2023/11/05 10:57:21;;;;;;;;;;;23.20;46.40;;;;;;5116198;28;19923;-59
2023/11/05 10:59:48;;;;;;;;;;;23.20;46.40;;;;;;5116116;28;19924;-59
2023/11/05 11:02:15;;;;;;;;;;;23.20;46.40;;;;;;5115908;28;19924;-58
2023/11/05 11:04:43;;;;;;;;;;;23.20;46.40;;;;;;5115640;28;19923;-59
2023/11/05 11:07:11;;;;;;;;;;;23.30;46.40;;;;;;5115962;28;19977;-58
2023/11/05 11:09:39;;;;;;;;;;;23.30;46.30;;;;;;5115564;28;19988;-59
2023/11/05 11:12:26;;;;;;;;;;;23.40;46.30;;;;;;5115472;28;19928;-56
2023/11/05 11:14:53;;;;;;;;;;;23.50;46.30;;;;;;5115522;28;19923;-59
2023/11/05 11:17:20;;;;;;;;;;;23.50;46.30;;;;;;5116001;28;19977;-59
2023/11/05 11:19:49;;;;;;;;;;;23.50;46.30;;;;;;5097960;28;19931;-60
2023/11/05 11:22:16;;;;;;;;;;;23.50;46.30;;;;;;5115557;28;20344;-59
2023/11/05 11:24:43;;;;;;;;;;;23.50;46.40;;;;;;5097255;28;19924;-61
2023/11/05 11:27:14;;;;;;;;;;;23.60;46.50;;;;;;5115680;28;20315;-59
2023/11/05 11:29:42;;;;;;;;;;;23.60;46.50;;;;;;5115390;28;19924;-59
2023/11/05 11:32:09;;;;;;;;;;;23.60;46.50;;;;;;5115633;28;20036;-58
2023/11/05 11:34:41;;;;;;;;;;;23.60;46.50;;;;;;5115259;28;19959;-60
2023/11/05 11:37:08;;;;;;;;;;;23.60;46.40;;;;;;5115738;28;19939;-58
2023/11/05 11:39:35;;;;;;;;;;;23.60;46.40;;;;;;5115410;28;19970;-57
2023/11/05 11:42:03;;;;;;;;;;;23.70;46.50;;;;;;5114518;28;19928;-58
2023/11/05 11:44:31;;;;;;;;;;;23.70;46.40;;;;;;5124221;27;20434;-58
2023/11/05 11:46:58;;;;;;;;;;;23.70;46.30;;;;;;5097357;28;19935;-58
2023/11/05 11:49:27;;;;;;;;;;;23.70;46.20;;;;;;5106296;28;19924;-59
2023/11/05 11:51:54;;;;;;;;;;;23.70;46.10;;;;;;5114552;28;20356;-59
2023/11/05 11:54:24;;;;;;;;;;;23.80;46.10;;;;;;5114958;28;19924;-58
2023/11/05 11:56:51;;;;;;;;;;;23.80;46.00;;;;;;5114901;28;19931;-59
2023/11/05 11:59:22;;;;;;;;;;;23.80;46.00;;;;;;5115005;28;19927;-58
2023/11/05 12:01:51;;;;;;;;;;;23.80;45.90;;;;;;5086876;28;20342;-58
2023/11/05 12:04:18;;;;;;;;;;;23.80;45.90;;;;;;5094161;28;19931;-59
2023/11/05 12:06:46;;;;;;;;;;;23.80;45.90;;;;;;5094038;28;20014;-58
2023/11/05 12:09:20;;;;;;;;;;;23.80;45.80;;;;;;5093729;28;20445;-58
2023/11/05 12:11:49;;;;;;;;;;;23.80;45.80;;;;;;5094025;28;20380;-59
2023/11/05 12:14:27;;;;;;;;;;;23.80;45.70;;;;;;5094371;28;19924;-59
2023/11/05 12:16:55;;;;;;;;;;;23.80;45.70;;;;;;5094170;28;19931;-59
2023/11/05 12:19:22;;;;;;;;;;;23.90;45.70;;;;;;5094602;28;19931;-59
2023/11/05 12:21:49;;;;;;;;;;;23.80;45.70;;;;;;5094461;28;19931;-58
2023/11/05 12:24:17;;;;;;;;;;;23.80;45.70;;;;;;5093335;28;19978;-58
2023/11/05 12:26:44;;;;;;;;;;;23.80;45.60;;;;;;5125481;27;19931;-58
2023/11/05 12:29:14;;;;;;;;;;;23.90;45.60;;;;;;5113000;28;19923;-60
2023/11/05 12:31:44;;;;;;;;;;;23.90;45.60;;;;;;5092858;28;20445;-59
2023/11/05 12:34:11;;;;;;;;;;;23.90;45.60;;;;;;5111528;28;19932;-59
2023/11/05 12:36:38;;;;;;;;;;;23.90;45.60;;;;;;5112440;28;19928;-59
2023/11/05 12:39:05;;;;;;;;;;;23.90;45.50;;;;;;5114358;28;19924;-59
2023/11/05 12:41:32;;;;;;;;;;;23.90;45.50;;;;;;5114619;28;19924;-59
2023/11/05 12:43:59;;;;;;;;;;;23.90;45.50;;;;;;5113848;28;19927;-59
2023/11/05 12:46:26;;;;;;;;;;;23.90;45.50;;;;;;5095760;28;19977;-59
2023/11/05 12:48:54;;;;;;;;;;;23.90;45.50;;;;;;5114099;28;19976;-59
2023/11/05 12:51:21;;;;;;;;;;;23.90;45.50;;;;;;5112993;28;19923;-59
2023/11/05 12:53:48;;;;;;;;;;;23.90;45.50;;;;;;5113564;28;19931;-59
2023/11/05 12:56:16;;;;;;;;;;;23.90;45.50;;;;;;5114067;28;19930;-59
2023/11/05 12:58:44;;;;;;;;;;;23.80;45.50;;;;;;5113865;28;19977;-59
2023/11/05 13:01:11;;;;;;;;;;;23.80;45.50;;;;;;5114249;28;20363;-59
2023/11/05 13:03:38;;;;;;;;;;;23.80;45.50;;;;;;5114200;28;19927;-59
2023/11/05 13:06:06;;;;;;;;;;;23.80;45.50;;;;;;5113331;28;19924;-59
2023/11/05 13:08:36;;;;;;;;;;;23.80;45.50;;;;;;5113615;28;19953;-59
2023/11/05 13:11:04;;;;;;;;;;;23.80;45.50;;;;;;5113722;28;19923;-59
2023/11/05 13:13:32;;;;;;;;;;;23.80;45.50;;;;;;5113652;28;19928;-59
2023/11/05 13:16:00;;;;;;;;;;;23.80;45.40;;;;;;5113786;28;19971;-58
2023/11/05 13:18:27;;;;;;;;;;;23.80;45.40;;;;;;5118381;28;19924;-59
2023/11/05 13:20:54;;;;;;;;;;;23.80;45.30;;;;;;5118181;28;20014;-59
2023/11/05 13:23:22;;;;;;;;;;;23.80;45.30;;;;;;5117444;28;20455;-59
2023/11/05 13:25:49;;;;;;;;;;;23.90;45.30;;;;;;5117726;28;19936;-58
2023/11/05 13:28:16;;;;;;;;;;;23.90;45.30;;;;;;5107744;28;20268;-57
2023/11/05 13:30:44;;;;;;;;;;;23.90;45.30;;;;;;5114980;27;19959;-59
2023/11/05 13:33:11;;;;;;;;;;;23.80;45.20;;;;;;5115703;28;19927;-60
2023/11/05 13:35:38;;;;;;;;;;;23.90;45.20;;;;;;5116160;28;19928;-59
2023/11/05 13:38:06;;;;;;;;;;;23.90;45.20;;;;;;5117980;28;19924;-59
2023/11/05 13:40:34;;;;;;;;;;;23.90;45.20;;;;;;5111761;27;19931;-58
2023/11/05 13:43:03;;;;;;;;;;;23.90;45.10;;;;;;5095155;28;19924;-59
2023/11/05 13:45:30;;;;;;;;;;;23.90;45.20;;;;;;5110149;28;19924;-59
2023/11/05 13:47:57;;;;;;;;;;;23.80;45.10;;;;;;5117100;28;19923;-58
2023/11/05 13:50:25;;;;;;;;;;;23.90;45.00;;;;;;5117694;28;19924;-58
2023/11/05 13:52:52;;;;;;;;;;;23.90;45.00;;;;;;5115916;28;19924;-58
2023/11/05 13:55:19;;;;;;;;;;;23.90;45.00;;;;;;5117444;28;19924;-58
2023/11/05 13:57:46;;;;;;;;;;;23.90;45.00;;;;;;5117202;28;20257;-59
2023/11/05 14:00:13;;;;;;;;;;;23.90;45.00;;;;;;5117401;28;19923;-58
2023/11/05 14:02:41;;;;;;;;;;;23.90;45.00;;;;;;5116462;28;20332;-58
2023/11/05 14:05:09;;;;;;;;;;;23.90;44.90;;;;;;5117211;28;20279;-58
2023/11/05 14:07:37;;;;;;;;;;;23.90;45.00;;;;;;5117318;28;19924;-58
2023/11/05 14:10:06;;;;;;;;;;;23.90;45.00;;;;;;5112333;28;19924;-59
2023/11/05 14:12:34;;;;;;;;;;;23.80;45.10;;;;;;5116669;28;20466;-58
2023/11/05 14:15:05;;;;;;;;;;;23.80;45.10;;;;;;5116670;28;20015;-58
2023/11/05 14:17:33;;;;;;;;;;;23.80;45.20;;;;;;5116880;28;19970;-58